Time;durP1;ratioP1;P1;durP2;ratioP2;P2;SDS_P1;SDS_P2;PMS_P1;PMS_P2;Temp;Humidity;BMP_temperature;BMP_pressure;BME280_temperature;BME280_humidity;BME280_pressure;Samples;Min_cycle;Max_cycle;Signal;HPM_P1;HPM_P2
2023/06/20 00:00:12;;;;;;;;;;;21.00;97.10;;;;;;5036537;28;19951;-72
2023/06/20 00:02:38;;;;;;;;;;;21.00;97.10;;;;;;5036549;28;19955;-72
2023/06/20 00:05:04;;;;;;;;;;;21.00;97.10;;;;;;5036515;28;20280;-72
2023/06/20 00:07:30;;;;;;;;;;;21.00;97.20;;;;;;5018758;28;19905;-72
2023/06/20 00:09:55;;;;;;;;;;;20.90;97.20;;;;;;5036299;28;19963;-72
2023/06/20 00:12:21;;;;;;;;;;;20.90;97.30;;;;;;5036410;28;19909;-72
2023/06/20 00:14:46;;;;;;;;;;;20.90;97.30;;;;;;5036186;28;19916;-73
2023/06/20 00:17:13;;;;;;;;;;;20.90;97.20;;;;;;5018405;28;19904;-72
2023/06/20 00:19:39;;;;;;;;;;;20.90;97.40;;;;;;5036132;28;20387;-73
2023/06/20 00:22:05;;;;;;;;;;;20.90;97.30;;;;;;5036756;28;19905;-73
2023/06/20 00:24:33;;;;;;;;;;;20.80;97.40;;;;;;5036157;28;19909;-73
2023/06/20 00:27:00;;;;;;;;;;;20.90;97.60;;;;;;5036778;28;19955;-72
2023/06/20 00:29:25;;;;;;;;;;;20.90;97.50;;;;;;5036203;28;19964;-72
2023/06/20 00:31:51;;;;;;;;;;;20.90;97.50;;;;;;5036055;28;19932;-72
2023/06/20 00:34:16;;;;;;;;;;;20.90;97.50;;;;;;5018185;28;19916;-73
2023/06/20 00:36:42;;;;;;;;;;;20.90;97.50;;;;;;5036008;28;19912;-73
2023/06/20 00:39:07;;;;;;;;;;;20.90;97.60;;;;;;5035635;28;20344;-73
2023/06/20 00:41:33;;;;;;;;;;;20.90;97.40;;;;;;5017438;28;19955;-72
2023/06/20 00:44:01;;;;;;;;;;;20.90;97.60;;;;;;5035682;28;19909;-72
2023/06/20 00:46:26;;;;;;;;;;;20.90;97.60;;;;;;5017969;28;19916;-72
2023/06/20 00:48:52;;;;;;;;;;;20.90;97.50;;;;;;5035766;28;19905;-72
2023/06/20 00:51:19;;;;;;;;;;;20.90;97.50;;;;;;5036042;28;19905;-72
2023/06/20 00:53:45;;;;;;;;;;;20.90;97.70;;;;;;5017885;28;19905;-72
2023/06/20 00:56:11;;;;;;;;;;;20.90;97.50;;;;;;5017868;28;19951;-72
2023/06/20 00:58:37;;;;;;;;;;;20.90;97.60;;;;;;5035628;28;19909;-72
2023/06/20 01:01:02;;;;;;;;;;;20.90;97.60;;;;;;5035349;28;19905;-73
2023/06/20 01:03:28;;;;;;;;;;;20.90;97.70;;;;;;5035460;28;19912;-72
2023/06/20 01:06:00;;;;;;;;;;;20.90;97.50;;;;;;5035413;28;20311;-72
2023/06/20 01:08:32;;;;;;;;;;;20.90;97.50;;;;;;5035512;28;19905;-72
2023/06/20 01:11:04;;;;;;;;;;;20.90;97.50;;;;;;5035672;28;19920;-72
2023/06/20 01:13:35;;;;;;;;;;;20.90;97.60;;;;;;5035781;28;19905;-72
2023/06/20 01:16:07;;;;;;;;;;;20.80;97.60;;;;;;5017604;28;19905;-72
2023/06/20 01:18:43;;;;;;;;;;;20.90;97.60;;;;;;5035847;28;19908;-72
2023/06/20 01:21:11;;;;;;;;;;;20.90;97.60;;;;;;5035178;28;19910;-72
2023/06/20 01:23:43;;;;;;;;;;;20.90;97.50;;;;;;5034881;28;19913;-72
2023/06/20 01:26:17;;;;;;;;;;;20.90;97.60;;;;;;5035328;28;20000;-73
2023/06/20 01:28:50;;;;;;;;;;;20.80;97.80;;;;;;5035152;28;20111;-73
2023/06/20 01:31:17;;;;;;;;;;;20.80;97.80;;;;;;5034948;28;19905;-72
2023/06/20 01:33:43;;;;;;;;;;;20.80;97.70;;;;;;5035373;28;19911;-72
2023/06/20 01:36:09;;;;;;;;;;;20.80;97.80;;;;;;5034855;28;19991;-72
2023/06/20 01:38:38;;;;;;;;;;;20.80;97.70;;;;;;5016912;28;19912;-72
2023/06/20 01:41:04;;;;;;;;;;;20.80;98.00;;;;;;5034460;28;19912;-72
2023/06/20 01:43:30;;;;;;;;;;;20.80;97.90;;;;;;5034653;28;19905;-72
2023/06/20 01:45:56;;;;;;;;;;;20.70;98.00;;;;;;5034544;28;19912;-72
2023/06/20 01:48:23;;;;;;;;;;;20.70;98.10;;;;;;5016857;28;20349;-72
2023/06/20 01:50:50;;;;;;;;;;;20.70;98.00;;;;;;5034647;28;20337;-72
2023/06/20 01:53:17;;;;;;;;;;;20.70;97.90;;;;;;5033858;28;19905;-72
2023/06/20 01:55:43;;;;;;;;;;;20.80;98.10;;;;;;5034968;28;19965;-72
2023/06/20 01:58:09;;;;;;;;;;;20.70;98.10;;;;;;5016851;28;20380;-72
2023/06/20 02:00:36;;;;;;;;;;;20.70;98.20;;;;;;5034387;28;19905;-72
2023/06/20 02:03:01;;;;;;;;;;;20.70;98.10;;;;;;5034304;28;20353;-72
2023/06/20 02:05:29;;;;;;;;;;;20.70;98.10;;;;;;5034733;28;19909;-75
2023/06/20 02:07:55;;;;;;;;;;;20.60;98.10;;;;;;5034361;28;19952;-75
2023/06/20 02:10:21;;;;;;;;;;;20.60;97.90;;;;;;5016696;28;19905;-75
2023/06/20 02:12:48;;;;;;;;;;;20.60;98.30;;;;;;5034301;28;19909;-75
2023/06/20 02:15:14;;;;;;;;;;;20.60;98.50;;;;;;5034169;28;19905;-75
2023/06/20 02:17:39;;;;;;;;;;;20.50;98.70;;;;;;5034490;28;19905;-75
2023/06/20 02:20:05;;;;;;;;;;;20.50;98.60;;;;;;5034054;28;20003;-75
2023/06/20 02:22:32;;;;;;;;;;;20.50;99.00;;;;;;5034673;28;19905;-75
2023/06/20 02:25:02;;;;;;;;;;;20.50;98.90;;;;;;5034073;28;20372;-75
2023/06/20 02:27:28;;;;;;;;;;;20.40;99.00;;;;;;5016466;28;19908;-75
2023/06/20 02:29:55;;;;;;;;;;;20.40;98.90;;;;;;5034082;28;19912;-75
2023/06/20 02:32:22;;;;;;;;;;;20.40;99.00;;;;;;5016339;28;20004;-75
2023/06/20 02:34:48;;;;;;;;;;;20.30;99.10;;;;;;5034227;28;19913;-75
2023/06/20 02:37:14;;;;;;;;;;;20.40;98.90;;;;;;5033830;28;19905;-75
2023/06/20 02:39:40;;;;;;;;;;;20.50;98.90;;;;;;5033816;28;19948;-75
2023/06/20 02:42:05;;;;;;;;;;;20.40;98.60;;;;;;5033909;28;19909;-74
2023/06/20 02:44:31;;;;;;;;;;;20.40;98.70;;;;;;5034002;28;19999;-75
2023/06/20 02:46:59;;;;;;;;;;;20.30;98.60;;;;;;5033832;28;20035;-75
2023/06/20 02:49:37;;;;;;;;;;;20.40;98.60;;;;;;5033726;28;19906;-75
2023/06/20 02:52:10;;;;;;;;;;;20.40;98.50;;;;;;5016576;28;19906;-75
2023/06/20 02:54:46;;;;;;;;;;;20.40;98.60;;;;;;5033449;28;19905;-75
2023/06/20 02:57:13;;;;;;;;;;;20.40;98.30;;;;;;5034165;28;19905;-75
2023/06/20 02:59:42;;;;;;;;;;;20.40;98.20;;;;;;5015912;28;19936;-75
2023/06/20 03:02:08;;;;;;;;;;;20.40;98.50;;;;;;5033579;28;19992;-75
2023/06/20 03:04:34;;;;;;;;;;;20.40;98.40;;;;;;5034337;28;20047;-75
2023/06/20 03:07:01;;;;;;;;;;;20.40;98.30;;;;;;5019976;28;19912;-75
2023/06/20 03:09:27;;;;;;;;;;;20.40;98.10;;;;;;5037498;28;19949;-75
2023/06/20 03:11:53;;;;;;;;;;;20.40;98.30;;;;;;5019995;28;19905;-75
2023/06/20 03:14:18;;;;;;;;;;;20.40;98.30;;;;;;5037587;28;20426;-75
2023/06/20 03:16:43;;;;;;;;;;;20.30;98.60;;;;;;5037476;28;19905;-75
2023/06/20 03:19:10;;;;;;;;;;;20.30;98.20;;;;;;5037378;28;19905;-75
2023/06/20 03:21:36;;;;;;;;;;;20.30;98.40;;;;;;5037424;28;20377;-75
2023/06/20 03:24:01;;;;;;;;;;;20.40;98.40;;;;;;5037856;28;20307;-75
2023/06/20 03:26:27;;;;;;;;;;;20.30;98.40;;;;;;5037259;28;19905;-75
2023/06/20 03:28:52;;;;;;;;;;;20.40;98.40;;;;;;5037600;28;20379;-75
2023/06/20 03:31:18;;;;;;;;;;;20.30;98.30;;;;;;5019745;28;20356;-74
2023/06/20 03:33:43;;;;;;;;;;;20.40;98.40;;;;;;5037180;28;19912;-75
2023/06/20 03:36:09;;;;;;;;;;;20.30;98.40;;;;;;5037661;28;20264;-75
2023/06/20 03:38:35;;;;;;;;;;;20.30;98.40;;;;;;5037082;28;19905;-75
2023/06/20 03:41:01;;;;;;;;;;;20.40;98.50;;;;;;5037076;28;19920;-75
2023/06/20 03:43:26;;;;;;;;;;;20.40;98.50;;;;;;5037687;28;19909;-75
2023/06/20 03:45:51;;;;;;;;;;;20.30;98.50;;;;;;5036864;28;19916;-74
2023/06/20 03:48:19;;;;;;;;;;;20.40;98.60;;;;;;5037149;28;19905;-74
2023/06/20 03:50:44;;;;;;;;;;;20.40;98.60;;;;;;5037417;28;20262;-75
2023/06/20 03:53:09;;;;;;;;;;;20.30;98.60;;;;;;5036819;28;19912;-75
2023/06/20 03:55:35;;;;;;;;;;;20.30;98.70;;;;;;5019461;28;20365;-75
2023/06/20 03:58:00;;;;;;;;;;;20.30;98.70;;;;;;5036753;28;20324;-74
2023/06/20 04:00:26;;;;;;;;;;;20.40;98.80;;;;;;5036799;28;20326;-75
2023/06/20 04:02:52;;;;;;;;;;;20.30;98.80;;;;;;5036652;28;19905;-74
2023/06/20 04:05:17;;;;;;;;;;;20.30;98.80;;;;;;5036651;28;20051;-74
2023/06/20 04:07:43;;;;;;;;;;;20.30;98.70;;;;;;5036541;28;20043;-74
2023/06/20 04:10:09;;;;;;;;;;;20.40;98.90;;;;;;5036766;28;19905;-74
2023/06/20 04:12:34;;;;;;;;;;;20.40;98.90;;;;;;5036613;28;19909;-74
2023/06/20 04:15:00;;;;;;;;;;;20.40;99.00;;;;;;5036591;28;20372;-74
2023/06/20 04:17:25;;;;;;;;;;;20.40;99.00;;;;;;5017623;28;19931;-75
2023/06/20 04:19:51;;;;;;;;;;;20.50;99.00;;;;;;5036234;28;19905;-75
2023/06/20 04:22:16;;;;;;;;;;;20.50;98.90;;;;;;5036587;28;19953;-74
2023/06/20 04:24:42;;;;;;;;;;;20.50;98.90;;;;;;5018404;28;20372;-74
2023/06/20 04:27:07;;;;;;;;;;;20.60;98.90;;;;;;5036202;28;19912;-74
2023/06/20 04:29:33;;;;;;;;;;;20.60;98.90;;;;;;5036203;28;19909;-74
2023/06/20 04:31:58;;;;;;;;;;;20.60;98.90;;;;;;5036017;28;19905;-74
2023/06/20 04:34:24;;;;;;;;;;;20.60;98.90;;;;;;5036818;28;19912;-74
2023/06/20 04:36:54;;;;;;;;;;;20.60;99.10;;;;;;5036100;28;19905;-75
2023/06/20 04:39:19;;;;;;;;;;;20.60;98.90;;;;;;5035925;28;19909;-74
2023/06/20 04:41:45;;;;;;;;;;;20.50;98.90;;;;;;5036001;28;19912;-75
2023/06/20 04:44:10;;;;;;;;;;;20.60;99.10;;;;;;5035891;28;19909;-75
2023/06/20 04:46:35;;;;;;;;;;;20.50;99.10;;;;;;5035779;28;19905;-75
2023/06/20 04:49:04;;;;;;;;;;;20.50;99.30;;;;;;5035766;28;19920;-74
2023/06/20 04:51:29;;;;;;;;;;;20.40;99.50;;;;;;5018214;28;19909;-75
2023/06/20 04:53:55;;;;;;;;;;;20.40;99.60;;;;;;5035707;28;19912;-74
2023/06/20 04:56:22;;;;;;;;;;;20.40;99.70;;;;;;5035671;28;19905;-74
2023/06/20 04:58:47;;;;;;;;;;;20.40;99.80;;;;;;5017799;28;19908;-74
2023/06/20 05:01:16;;;;;;;;;;;20.50;99.90;;;;;;5035711;28;19905;-75
2023/06/20 05:03:42;;;;;;;;;;;20.50;99.80;;;;;;5035967;28;19905;-74
2023/06/20 05:06:08;;;;;;;;;;;20.50;99.50;;;;;;5017707;28;19909;-74
2023/06/20 05:08:33;;;;;;;;;;;20.60;99.80;;;;;;5035530;28;20411;-74
2023/06/20 05:10:59;;;;;;;;;;;20.70;99.80;;;;;;5035343;28;19905;-74
2023/06/20 05:13:24;;;;;;;;;;;20.80;99.60;;;;;;5035549;28;19959;-74
2023/06/20 05:15:50;;;;;;;;;;;20.80;99.50;;;;;;5035222;28;19905;-74
2023/06/20 05:18:15;;;;;;;;;;;20.90;99.40;;;;;;5035586;28;19959;-74
2023/06/20 05:20:40;;;;;;;;;;;21.00;99.30;;;;;;5035096;28;19905;-74
2023/06/20 05:23:06;;;;;;;;;;;21.00;99.30;;;;;;5035160;28;20411;-74
2023/06/20 05:25:32;;;;;;;;;;;21.20;99.20;;;;;;5034937;28;19909;-74
2023/06/20 05:27:57;;;;;;;;;;;21.30;99.00;;;;;;5034832;28;19951;-74
2023/06/20 05:30:23;;;;;;;;;;;21.30;99.00;;;;;;5035146;28;19928;-74
2023/06/20 05:32:48;;;;;;;;;;;21.40;99.10;;;;;;5035526;28;19941;-74
2023/06/20 05:35:14;;;;;;;;;;;21.50;98.90;;;;;;5017220;28;19905;-74
2023/06/20 05:37:39;;;;;;;;;;;21.60;98.50;;;;;;5034861;28;20425;-74
2023/06/20 05:40:06;;;;;;;;;;;21.80;98.60;;;;;;5034838;28;20297;-74
2023/06/20 05:42:31;;;;;;;;;;;21.90;98.30;;;;;;5034782;28;19916;-74
2023/06/20 05:44:57;;;;;;;;;;;22.00;98.20;;;;;;5035198;28;19909;-74
2023/06/20 05:47:22;;;;;;;;;;;22.10;97.80;;;;;;5034558;28;19938;-74
2023/06/20 05:49:48;;;;;;;;;;;22.20;98.00;;;;;;5034662;28;19909;-74
2023/06/20 05:52:14;;;;;;;;;;;22.40;98.00;;;;;;5034545;28;20357;-74
2023/06/20 05:54:41;;;;;;;;;;;22.50;97.40;;;;;;5035362;28;19905;-74
2023/06/20 05:57:07;;;;;;;;;;;22.70;97.30;;;;;;5035150;28;19909;-74
2023/06/20 05:59:32;;;;;;;;;;;22.90;97.10;;;;;;5034436;28;20443;-74
2023/06/20 06:01:58;;;;;;;;;;;23.10;96.20;;;;;;5034439;28;19905;-74
2023/06/20 06:04:25;;;;;;;;;;;23.40;95.70;;;;;;5033911;28;20276;-74
2023/06/20 06:06:51;;;;;;;;;;;23.50;95.50;;;;;;5032649;28;20555;-74
2023/06/20 06:09:16;;;;;;;;;;;23.80;95.10;;;;;;5034001;28;19913;-74
2023/06/20 06:11:42;;;;;;;;;;;23.90;94.50;;;;;;5015869;28;19905;-74
2023/06/20 06:14:07;;;;;;;;;;;24.00;94.60;;;;;;5033918;28;20323;-74
2023/06/20 06:16:33;;;;;;;;;;;24.20;94.30;;;;;;5016757;28;19912;-74
2023/06/20 06:19:00;;;;;;;;;;;24.30;94.50;;;;;;5034039;28;19905;-74
2023/06/20 06:21:26;;;;;;;;;;;24.30;93.90;;;;;;5034366;28;19909;-74
2023/06/20 06:23:52;;;;;;;;;;;24.40;94.00;;;;;;5034032;28;19937;-74
2023/06/20 06:26:17;;;;;;;;;;;24.30;93.60;;;;;;5016465;28;19982;-74
2023/06/20 06:28:42;;;;;;;;;;;24.30;94.10;;;;;;5016167;28;19905;-74
2023/06/20 06:31:13;;;;;;;;;;;24.30;94.10;;;;;;5034245;28;19905;-74
2023/06/20 06:33:40;;;;;;;;;;;24.40;94.20;;;;;;5033838;28;20351;-74
2023/06/20 06:36:05;;;;;;;;;;;24.50;93.70;;;;;;5034615;28;20013;-74
2023/06/20 06:38:32;;;;;;;;;;;24.70;93.60;;;;;;5033692;28;20365;-74
2023/06/20 06:40:59;;;;;;;;;;;24.80;93.10;;;;;;5033356;28;19913;-74
2023/06/20 06:43:25;;;;;;;;;;;24.90;93.20;;;;;;5034050;28;19905;-74
2023/06/20 06:45:50;;;;;;;;;;;24.90;93.20;;;;;;5033582;28;19963;-74
2023/06/20 06:48:16;;;;;;;;;;;25.00;93.00;;;;;;5033732;28;19943;-74
2023/06/20 06:50:43;;;;;;;;;;;25.00;92.60;;;;;;5033668;28;19912;-74
2023/06/20 06:53:09;;;;;;;;;;;25.10;92.50;;;;;;5033581;28;19993;-74
2023/06/20 06:55:35;;;;;;;;;;;25.20;92.30;;;;;;5033745;28;19912;-74
2023/06/20 06:58:00;;;;;;;;;;;25.20;92.40;;;;;;5033711;28;19906;-74
2023/06/20 07:00:26;;;;;;;;;;;25.20;92.60;;;;;;5034203;28;19971;-75
2023/06/20 07:02:51;;;;;;;;;;;25.30;92.60;;;;;;5033591;28;19909;-74
2023/06/20 07:05:17;;;;;;;;;;;25.20;92.50;;;;;;5033591;28;19909;-74
2023/06/20 07:07:43;;;;;;;;;;;25.30;92.90;;;;;;5015959;28;19912;-74
2023/06/20 07:10:09;;;;;;;;;;;25.30;92.60;;;;;;5016079;28;20323;-74
2023/06/20 07:12:35;;;;;;;;;;;25.30;92.60;;;;;;5015940;28;19909;-74
2023/06/20 07:15:00;;;;;;;;;;;25.30;92.40;;;;;;5016020;28;19905;-74
2023/06/20 07:17:26;;;;;;;;;;;25.40;92.20;;;;;;5034343;28;19909;-74
2023/06/20 07:19:51;;;;;;;;;;;25.40;92.30;;;;;;5033453;28;20326;-74
2023/06/20 07:22:17;;;;;;;;;;;25.40;92.00;;;;;;5015744;28;19909;-74
2023/06/20 07:24:43;;;;;;;;;;;25.40;91.70;;;;;;5033267;28;20277;-75
2023/06/20 07:27:08;;;;;;;;;;;25.30;91.50;;;;;;5033414;28;20054;-75
2023/06/20 07:29:34;;;;;;;;;;;25.30;91.70;;;;;;5033311;28;19905;-74
2023/06/20 07:31:59;;;;;;;;;;;25.30;92.20;;;;;;5034008;28;19905;-74
2023/06/20 07:34:25;;;;;;;;;;;25.40;91.60;;;;;;5033417;28;19905;-75
2023/06/20 07:36:50;;;;;;;;;;;25.50;91.30;;;;;;5015714;28;19999;-74
2023/06/20 07:39:15;;;;;;;;;;;25.60;90.90;;;;;;5015478;28;19924;-75
2023/06/20 07:41:41;;;;;;;;;;;25.70;90.90;;;;;;5033876;28;19905;-75
2023/06/20 07:44:08;;;;;;;;;;;25.80;91.00;;;;;;5015685;28;19913;-74
2023/06/20 07:46:33;;;;;;;;;;;25.80;90.50;;;;;;5033455;28;20295;-74
2023/06/20 07:48:59;;;;;;;;;;;25.90;91.10;;;;;;5033335;28;19905;-75
2023/06/20 07:51:24;;;;;;;;;;;26.00;90.80;;;;;;5017540;28;20276;-74
2023/06/20 07:53:50;;;;;;;;;;;26.10;90.50;;;;;;5037088;28;19978;-74
2023/06/20 07:56:15;;;;;;;;;;;26.20;90.60;;;;;;5037053;28;19905;-75
2023/06/20 07:58:41;;;;;;;;;;;26.20;90.80;;;;;;5019391;28;20380;-75
2023/06/20 08:01:07;;;;;;;;;;;26.20;90.60;;;;;;5037127;28;19908;-75
2023/06/20 08:03:33;;;;;;;;;;;26.20;90.20;;;;;;5019422;28;19912;-75
2023/06/20 08:05:59;;;;;;;;;;;26.30;90.60;;;;;;5037183;28;19909;-74
2023/06/20 08:08:24;;;;;;;;;;;26.30;90.50;;;;;;5036573;28;19911;-75
2023/06/20 08:10:49;;;;;;;;;;;26.40;90.00;;;;;;5018799;28;20280;-75
2023/06/20 08:13:15;;;;;;;;;;;26.40;90.50;;;;;;5018791;28;19963;-75
2023/06/20 08:15:40;;;;;;;;;;;26.40;90.50;;;;;;5036434;28;19905;-75
2023/06/20 08:18:06;;;;;;;;;;;26.50;90.40;;;;;;5036562;28;20429;-75
2023/06/20 08:20:31;;;;;;;;;;;26.60;90.20;;;;;;5036803;28;19905;-75
2023/06/20 08:22:57;;;;;;;;;;;26.70;90.00;;;;;;5018954;28;20394;-75
2023/06/20 08:25:22;;;;;;;;;;;26.80;90.40;;;;;;5018518;28;19912;-75
2023/06/20 08:27:48;;;;;;;;;;;26.90;90.40;;;;;;5018619;28;19905;-75
2023/06/20 08:30:13;;;;;;;;;;;27.00;89.60;;;;;;5036271;28;19904;-75
2023/06/20 08:32:41;;;;;;;;;;;27.10;89.10;;;;;;5036180;28;19912;-75
2023/06/20 08:35:08;;;;;;;;;;;27.10;89.60;;;;;;5036210;28;20009;-75
2023/06/20 08:37:33;;;;;;;;;;;27.20;89.70;;;;;;5036273;28;19905;-75
2023/06/20 08:39:59;;;;;;;;;;;27.30;89.30;;;;;;5036094;28;20284;-75
2023/06/20 08:42:24;;;;;;;;;;;27.40;88.40;;;;;;5018292;28;19909;-74
2023/06/20 08:44:50;;;;;;;;;;;27.40;89.10;;;;;;5036272;28;20349;-74
2023/06/20 08:47:15;;;;;;;;;;;27.50;90.30;;;;;;5036108;28;19905;-74
2023/06/20 08:49:41;;;;;;;;;;;27.60;89.40;;;;;;5036015;28;19939;-75
2023/06/20 08:52:10;;;;;;;;;;;27.80;89.10;;;;;;5035801;28;19915;-74
2023/06/20 08:54:37;;;;;;;;;;;27.70;88.30;;;;;;5036032;28;19933;-74
2023/06/20 08:57:02;;;;;;;;;;;27.80;88.70;;;;;;5035738;28;19992;-75
2023/06/20 08:59:28;;;;;;;;;;;27.90;87.60;;;;;;5036012;28;19948;-75
2023/06/20 09:01:53;;;;;;;;;;;28.00;88.60;;;;;;5035533;28;19905;-74
2023/06/20 09:04:19;;;;;;;;;;;27.80;88.10;;;;;;5035803;28;19916;-74
2023/06/20 09:06:47;;;;;;;;;;;27.80;87.70;;;;;;5035973;28;19911;-75
2023/06/20 09:09:16;;;;;;;;;;;27.90;88.20;;;;;;5035703;28;19904;-75
2023/06/20 09:11:56;;;;;;;;;;;28.00;87.80;;;;;;5036398;28;20327;-75
2023/06/20 09:14:28;;;;;;;;;;;27.90;86.80;;;;;;5035869;28;19905;-74
2023/06/20 09:16:54;;;;;;;;;;;27.90;88.20;;;;;;5035532;28;19905;-74
2023/06/20 09:19:19;;;;;;;;;;;28.00;89.30;;;;;;5035599;28;19905;-74
2023/06/20 09:21:45;;;;;;;;;;;28.10;87.30;;;;;;5036058;28;19912;-75
2023/06/20 09:24:10;;;;;;;;;;;28.10;88.40;;;;;;5017796;28;20372;-75
2023/06/20 09:26:36;;;;;;;;;;;28.30;88.70;;;;;;5035650;28;20331;-75
2023/06/20 09:29:12;;;;;;;;;;;28.40;88.20;;;;;;5017516;28;19911;-75
2023/06/20 09:31:45;;;;;;;;;;;28.60;88.00;;;;;;5035295;28;20524;-75
2023/06/20 09:34:11;;;;;;;;;;;28.70;86.40;;;;;;5035225;28;19920;-75
2023/06/20 09:36:37;;;;;;;;;;;28.90;84.80;;;;;;5017482;28;19955;-75
2023/06/20 09:39:07;;;;;;;;;;;28.90;83.70;;;;;;5035348;28;19909;-74
2023/06/20 09:41:32;;;;;;;;;;;29.00;84.30;;;;;;5017545;28;19909;-75
2023/06/20 09:43:58;;;;;;;;;;;29.20;84.50;;;;;;5035142;28;19951;-74
2023/06/20 09:46:23;;;;;;;;;;;29.30;84.10;;;;;;5035512;28;19905;-74
2023/06/20 09:48:49;;;;;;;;;;;29.60;83.60;;;;;;5035110;28;19909;-74
2023/06/20 09:51:15;;;;;;;;;;;29.60;83.80;;;;;;5035054;28;20386;-75
2023/06/20 09:53:46;;;;;;;;;;;29.70;82.70;;;;;;5034724;28;19912;-75
2023/06/20 09:56:14;;;;;;;;;;;29.70;81.20;;;;;;5034873;28;19905;-75
2023/06/20 09:58:40;;;;;;;;;;;29.60;82.70;;;;;;5035167;28;20055;-74
2023/06/20 10:01:10;;;;;;;;;;;29.50;82.40;;;;;;5034756;28;19912;-75
2023/06/20 10:03:37;;;;;;;;;;;29.70;81.50;;;;;;5035024;28;19905;-75
2023/06/20 10:06:02;;;;;;;;;;;29.70;79.90;;;;;;5034793;28;20284;-75
2023/06/20 10:08:29;;;;;;;;;;;29.80;80.00;;;;;;5034972;28;19905;-75
2023/06/20 10:10:54;;;;;;;;;;;29.90;79.30;;;;;;5016898;28;19904;-75
2023/06/20 10:13:20;;;;;;;;;;;29.90;80.20;;;;;;5034803;28;20403;-75
2023/06/20 10:15:45;;;;;;;;;;;29.90;81.10;;;;;;5016322;28;20003;-75
2023/06/20 10:18:35;;;;;;;;;;;30.00;80.10;;;;;;5034682;28;19905;-75
2023/06/20 10:21:04;;;;;;;;;;;30.10;80.00;;;;;;5035228;28;20401;-74
2023/06/20 10:23:30;;;;;;;;;;;30.20;79.20;;;;;;5034864;28;19905;-74
2023/06/20 10:25:58;;;;;;;;;;;30.30;79.50;;;;;;5034201;28;19963;-75
2023/06/20 10:28:24;;;;;;;;;;;30.50;78.80;;;;;;5034451;28;20292;-75
2023/06/20 10:30:49;;;;;;;;;;;30.70;78.10;;;;;;5016648;28;19959;-75
2023/06/20 10:33:31;;;;;;;;;;;30.80;77.00;;;;;;5034386;28;19941;-74
2023/06/20 10:36:02;;;;;;;;;;;30.90;77.40;;;;;;5034500;28;20000;-75
2023/06/20 10:38:29;;;;;;;;;;;31.20;77.90;;;;;;5034828;28;19905;-74
2023/06/20 10:41:11;;;;;;;;;;;31.30;77.30;;;;;;5034055;28;19913;-75
2023/06/20 10:43:52;;;;;;;;;;;31.30;77.10;;;;;;5034402;28;19905;-75
2023/06/20 10:46:19;;;;;;;;;;;31.50;77.50;;;;;;5033971;28;20368;-75
2023/06/20 10:48:44;;;;;;;;;;;31.60;77.00;;;;;;5016451;28;19954;-75
2023/06/20 10:51:10;;;;;;;;;;;31.80;77.80;;;;;;5034027;28;20288;-75
2023/06/20 10:53:36;;;;;;;;;;;32.00;77.30;;;;;;5034413;28;19950;-75
2023/06/20 10:56:01;;;;;;;;;;;32.20;75.40;;;;;;5034130;28;19905;-75
2023/06/20 10:58:27;;;;;;;;;;;32.20;74.90;;;;;;5016391;28;19909;-74
2023/06/20 11:00:53;;;;;;;;;;;32.00;75.50;;;;;;5034331;28;20000;-75
2023/06/20 11:03:20;;;;;;;;;;;32.00;75.30;;;;;;5016394;28;19928;-75
2023/06/20 11:05:49;;;;;;;;;;;32.00;75.50;;;;;;5034021;28;19948;-75
2023/06/20 11:08:22;;;;;;;;;;;31.70;76.40;;;;;;5034470;28;19909;-75
2023/06/20 11:10:47;;;;;;;;;;;31.70;76.10;;;;;;5016614;28;19909;-74
2023/06/20 11:13:13;;;;;;;;;;;31.60;76.30;;;;;;5034018;28;20387;-75
2023/06/20 11:15:38;;;;;;;;;;;31.70;76.20;;;;;;5033878;28;19972;-75
2023/06/20 11:18:04;;;;;;;;;;;32.00;76.20;;;;;;5034240;28;19976;-75
2023/06/20 11:20:35;;;;;;;;;;;32.30;75.30;;;;;;5033899;28;19912;-74
2023/06/20 11:23:02;;;;;;;;;;;32.40;73.80;;;;;;5034090;28;20365;-75
2023/06/20 11:25:32;;;;;;;;;;;32.40;73.80;;;;;;5034339;28;20015;-75
2023/06/20 11:28:03;;;;;;;;;;;32.40;74.00;;;;;;5037844;28;19952;-75
2023/06/20 11:30:29;;;;;;;;;;;32.50;73.20;;;;;;5037612;28;20017;-75
2023/06/20 11:32:58;;;;;;;;;;;32.70;73.00;;;;;;5037694;28;20360;-75
2023/06/20 11:35:23;;;;;;;;;;;32.70;72.60;;;;;;5038071;28;19951;-75
2023/06/20 11:37:50;;;;;;;;;;;32.60;72.90;;;;;;5020032;28;20335;-75
2023/06/20 11:40:15;;;;;;;;;;;32.40;73.00;;;;;;5037531;28;19959;-75
2023/06/20 11:42:41;;;;;;;;;;;32.20;73.50;;;;;;5038124;28;19909;-75
2023/06/20 11:45:07;;;;;;;;;;;32.20;74.20;;;;;;5037436;28;19928;-74
2023/06/20 11:47:34;;;;;;;;;;;32.50;74.30;;;;;;5037628;28;19905;-75
2023/06/20 11:49:59;;;;;;;;;;;32.80;72.30;;;;;;5019784;28;19905;-75
2023/06/20 11:52:33;;;;;;;;;;;33.20;71.90;;;;;;5037037;28;20345;-75
2023/06/20 11:54:59;;;;;;;;;;;33.60;70.80;;;;;;5037458;28;19963;-75
2023/06/20 11:57:29;;;;;;;;;;;33.70;69.00;;;;;;5019585;28;19928;-75
2023/06/20 11:59:55;;;;;;;;;;;33.90;69.20;;;;;;5037075;28;19927;-75
2023/06/20 12:02:24;;;;;;;;;;;34.00;68.10;;;;;;5019576;28;19955;-75
2023/06/20 12:04:59;;;;;;;;;;;33.90;67.90;;;;;;5037128;28;19915;-75
2023/06/20 12:07:25;;;;;;;;;;;33.80;68.50;;;;;;5037063;28;19905;-75
2023/06/20 12:09:51;;;;;;;;;;;33.70;68.40;;;;;;5036929;28;19912;-75
2023/06/20 12:12:16;;;;;;;;;;;33.90;68.70;;;;;;5036928;28;19944;-75
2023/06/20 12:14:43;;;;;;;;;;;34.20;67.70;;;;;;5037099;28;19905;-75
2023/06/20 12:17:09;;;;;;;;;;;34.40;65.90;;;;;;5019038;28;19905;-75
2023/06/20 12:19:34;;;;;;;;;;;34.80;64.50;;;;;;5037316;28;19912;-75
2023/06/20 12:22:00;;;;;;;;;;;34.80;64.30;;;;;;5037343;28;19912;-75
2023/06/20 12:24:27;;;;;;;;;;;35.10;64.60;;;;;;5037013;28;19936;-75
2023/06/20 12:26:53;;;;;;;;;;;35.00;64.10;;;;;;5036790;28;20424;-75
2023/06/20 12:29:19;;;;;;;;;;;34.60;63.50;;;;;;5037019;28;20387;-75
2023/06/20 12:31:44;;;;;;;;;;;34.50;64.20;;;;;;5036601;28;19905;-75
2023/06/20 12:34:09;;;;;;;;;;;34.40;64.80;;;;;;5019485;28;19960;-75
2023/06/20 12:36:35;;;;;;;;;;;34.50;63.40;;;;;;5036323;28;19905;-75
2023/06/20 12:39:01;;;;;;;;;;;34.60;63.20;;;;;;5036335;28;20411;-75
2023/06/20 12:41:33;;;;;;;;;;;34.70;63.10;;;;;;5036564;28;19905;-75
2023/06/20 12:43:58;;;;;;;;;;;35.00;61.80;;;;;;5036699;28;19911;-75
2023/06/20 12:46:24;;;;;;;;;;;35.30;61.40;;;;;;5036504;28;19976;-75
2023/06/20 12:48:49;;;;;;;;;;;35.80;60.30;;;;;;5035967;28;19905;-75
2023/06/20 12:51:15;;;;;;;;;;;35.80;60.80;;;;;;5037111;28;19905;-75
2023/06/20 12:53:40;;;;;;;;;;;36.10;60.30;;;;;;5036109;28;19905;-75
2023/06/20 12:56:06;;;;;;;;;;;36.10;60.40;;;;;;5018485;28;20319;-74
2023/06/20 12:58:33;;;;;;;;;;;35.90;58.50;;;;;;5018218;28;19983;-75
2023/06/20 13:00:59;;;;;;;;;;;35.90;58.70;;;;;;5036260;28;19992;-75
2023/06/20 13:03:25;;;;;;;;;;;35.80;58.90;;;;;;5036059;28;20434;-75
2023/06/20 13:05:50;;;;;;;;;;;35.50;59.00;;;;;;5035951;28;19971;-75
2023/06/20 13:08:15;;;;;;;;;;;35.40;60.00;;;;;;5018141;28;19911;-75
2023/06/20 13:10:41;;;;;;;;;;;35.70;58.10;;;;;;5035850;28;19912;-75
2023/06/20 13:13:07;;;;;;;;;;;35.80;59.10;;;;;;5036040;28;19959;-75
2023/06/20 13:15:32;;;;;;;;;;;35.80;58.30;;;;;;5035830;28;19905;-75
2023/06/20 13:18:01;;;;;;;;;;;35.60;59.00;;;;;;5035862;28;19905;-75
2023/06/20 13:20:27;;;;;;;;;;;35.60;59.50;;;;;;5018688;28;19944;-75
2023/06/20 13:22:53;;;;;;;;;;;35.70;59.20;;;;;;5035886;28;19909;-75
2023/06/20 13:25:19;;;;;;;;;;;35.90;59.30;;;;;;5035887;28;19954;-75
2023/06/20 13:27:45;;;;;;;;;;;35.90;58.50;;;;;;5036130;28;19988;-75
2023/06/20 13:30:11;;;;;;;;;;;35.80;58.50;;;;;;5036705;28;19967;-74
2023/06/20 13:32:36;;;;;;;;;;;35.90;59.50;;;;;;5035811;28;19912;-75
2023/06/20 13:35:03;;;;;;;;;;;36.20;59.30;;;;;;5035524;28;20304;-75
2023/06/20 13:37:28;;;;;;;;;;;36.60;58.90;;;;;;5035518;28;20006;-75
2023/06/20 13:39:54;;;;;;;;;;;37.00;56.20;;;;;;5035322;28;20356;-75
2023/06/20 13:42:19;;;;;;;;;;;36.40;56.10;;;;;;5035270;28;20004;-75
2023/06/20 13:44:45;;;;;;;;;;;36.60;56.70;;;;;;5035403;28;19931;-75
2023/06/20 13:47:10;;;;;;;;;;;36.90;56.00;;;;;;5035686;28;20300;-75
2023/06/20 13:49:36;;;;;;;;;;;37.20;55.70;;;;;;5035007;28;19911;-75
2023/06/20 13:52:01;;;;;;;;;;;36.90;55.50;;;;;;5035184;28;19905;-75
2023/06/20 13:54:27;;;;;;;;;;;36.50;56.20;;;;;;5035115;28;20003;-74
2023/06/20 13:56:52;;;;;;;;;;;36.20;55.10;;;;;;5034593;28;19909;-74
2023/06/20 13:59:18;;;;;;;;;;;35.50;55.20;;;;;;5034547;28;19999;-74
2023/06/20 14:01:44;;;;;;;;;;;35.30;55.60;;;;;;5035028;28;19988;-74
2023/06/20 14:04:09;;;;;;;;;;;34.90;56.60;;;;;;5034400;28;20326;-74
2023/06/20 14:06:35;;;;;;;;;;;34.50;57.20;;;;;;5016622;28;19928;-74
2023/06/20 14:09:01;;;;;;;;;;;34.20;58.40;;;;;;5016481;28;19905;-74
2023/06/20 14:11:27;;;;;;;;;;;34.00;58.70;;;;;;5034306;28;19913;-74